createdAt,value
2024-03-16T00:02:08.221Z,62.30
2024-03-16T00:04:35.759Z,62.19
2024-03-16T00:07:03.376Z,62.15
2024-03-16T00:09:31.020Z,62.33
2024-03-16T00:11:58.565Z,62.26
2024-03-16T00:14:26.111Z,62.27
2024-03-16T00:16:53.697Z,62.38
2024-03-16T00:19:21.240Z,62.14
2024-03-16T00:21:48.818Z,62.19
2024-03-16T00:24:16.446Z,62.32
2024-03-16T00:26:43.998Z,62.31
2024-03-16T00:29:12.463Z,62.38
2024-03-16T00:31:40.051Z,62.38
2024-03-16T00:34:09.620Z,62.21
2024-03-16T00:36:37.962Z,62.29
2024-03-16T00:39:15.946Z,62.27
2024-03-16T00:41:44.179Z,62.34
2024-03-16T00:44:11.751Z,62.09
2024-03-16T00:46:39.315Z,62.17
2024-03-16T00:49:06.937Z,62.16
2024-03-16T00:51:34.693Z,62.20
2024-03-16T00:54:02.275Z,62.38
2024-03-16T00:56:29.930Z,62.29
2024-03-16T00:58:57.516Z,62.39
2024-03-16T01:01:25.112Z,62.43
2024-03-16T01:03:52.739Z,62.32
2024-03-16T01:06:20.314Z,62.42
2024-03-16T01:08:48.215Z,62.42
2024-03-16T01:11:15.785Z,62.29
2024-03-16T01:13:44.453Z,62.25
2024-03-16T01:16:12.021Z,62.26
2024-03-16T01:18:40.904Z,62.58
2024-03-16T01:21:08.507Z,62.40
2024-03-16T01:23:36.060Z,62.35
2024-03-16T01:26:04.840Z,62.38
2024-03-16T01:28:32.447Z,62.36
2024-03-16T01:31:00.209Z,62.23
2024-03-16T01:33:27.896Z,62.29
2024-03-16T01:35:55.479Z,62.21
2024-03-16T01:38:23.039Z,62.27
2024-03-16T01:40:50.588Z,62.28
2024-03-16T01:43:18.148Z,62.33
2024-03-16T01:45:45.815Z,62.54
2024-03-16T01:48:13.723Z,62.30
2024-03-16T01:50:41.306Z,62.34
2024-03-16T01:53:10.588Z,62.27
2024-03-16T01:55:38.154Z,62.24
2024-03-16T01:58:07.467Z,62.41
2024-03-16T02:00:35.192Z,62.34
2024-03-16T02:03:03.135Z,62.47
2024-03-16T02:05:32.185Z,62.35
2024-03-16T02:08:00.302Z,62.54
2024-03-16T02:10:28.364Z,62.39
2024-03-16T02:12:56.066Z,62.45
2024-03-16T02:15:23.729Z,62.30
2024-03-16T02:17:51.499Z,62.51
2024-03-16T02:20:20.833Z,62.46
2024-03-16T02:22:50.722Z,62.37
2024-03-16T02:25:19.274Z,62.37
2024-03-16T02:27:48.275Z,62.46
2024-03-16T02:30:16.289Z,62.35
2024-03-16T02:32:44.047Z,62.51
2024-03-16T02:35:11.837Z,62.57
2024-03-16T02:37:39.388Z,62.46
2024-03-16T02:40:07.543Z,62.45
2024-03-16T02:42:36.233Z,62.52
2024-03-16T02:45:04.577Z,62.30
2024-03-16T02:47:32.195Z,62.47
2024-03-16T02:50:00.903Z,62.43
2024-03-16T02:52:28.488Z,62.37
2024-03-16T02:54:56.046Z,62.57
2024-03-16T02:57:25.146Z,62.48
2024-03-16T02:59:52.758Z,62.32
2024-03-16T03:02:24.418Z,62.42
2024-03-16T03:04:52.013Z,62.50
2024-03-16T03:07:19.603Z,62.39
2024-03-16T03:09:47.775Z,62.37
2024-03-16T03:12:15.558Z,62.51
2024-03-16T03:14:43.170Z,62.38
2024-03-16T03:17:10.747Z,62.34
2024-03-16T03:19:38.377Z,62.47
2024-03-16T03:22:06.366Z,62.40
2024-03-16T03:24:33.974Z,62.47
2024-03-16T03:27:01.543Z,62.46
2024-03-16T03:29:29.119Z,62.42
2024-03-16T03:31:58.138Z,62.38
2024-03-16T03:34:26.437Z,62.37
2024-03-16T03:36:54.176Z,62.25
2024-03-16T03:39:21.809Z,62.39
2024-03-16T03:41:50.419Z,62.45
2024-03-16T03:44:25.648Z,62.35
2024-03-16T03:46:55.808Z,62.41
2024-03-16T03:49:30.687Z,62.52
2024-03-16T03:51:59.239Z,62.46
2024-03-16T03:54:26.187Z,62.51
2024-03-16T03:56:53.845Z,62.52
2024-03-16T03:59:21.462Z,62.46
2024-03-16T04:01:49.034Z,62.38
2024-03-16T04:04:16.668Z,62.49
2024-03-16T04:06:45.970Z,62.50
2024-03-16T04:09:14.003Z,62.55
2024-03-16T04:11:41.683Z,62.65
2024-03-16T04:14:09.402Z,62.66
2024-03-16T04:16:36.993Z,62.43
2024-03-16T04:19:05.142Z,62.56
2024-03-16T04:21:32.813Z,62.50
2024-03-16T04:24:00.402Z,62.35
2024-03-16T04:26:28.078Z,62.54
2024-03-16T04:28:55.812Z,62.48
2024-03-16T04:31:23.375Z,62.53
2024-03-16T04:33:52.379Z,62.50
2024-03-16T04:36:20.113Z,62.50
2024-03-16T04:38:47.653Z,62.52
2024-03-16T04:41:15.214Z,62.45
2024-03-16T04:43:46.068Z,62.51
2024-03-16T04:46:14.719Z,62.40
2024-03-16T04:48:42.319Z,62.59
2024-03-16T04:51:09.883Z,62.55
2024-03-16T04:53:37.477Z,62.66
2024-03-16T04:56:05.275Z,62.41
2024-03-16T04:58:32.809Z,62.53
2024-03-16T05:01:00.477Z,62.47
2024-03-16T05:03:28.309Z,62.59
2024-03-16T05:05:57.417Z,62.57
2024-03-16T05:08:25.027Z,62.57
2024-03-16T05:10:52.804Z,62.46
2024-03-16T05:13:20.454Z,62.57
2024-03-16T05:15:48.089Z,62.66
2024-03-16T05:18:15.879Z,62.63
2024-03-16T05:20:43.599Z,62.58
2024-03-16T05:23:11.139Z,62.68
2024-03-16T05:25:39.166Z,62.63
2024-03-16T05:28:06.939Z,62.55
2024-03-16T05:30:34.661Z,62.60
2024-03-16T05:33:02.592Z,62.62
2024-03-16T05:35:30.239Z,62.50
2024-03-16T05:37:57.801Z,62.54
2024-03-16T05:40:25.676Z,62.67
2024-03-16T05:42:53.322Z,62.66
2024-03-16T05:45:20.933Z,62.58
2024-03-16T05:47:48.489Z,62.47
2024-03-16T05:50:16.063Z,62.52
2024-03-16T05:52:43.606Z,62.66
2024-03-16T05:55:11.261Z,62.73
2024-03-16T05:57:38.856Z,62.72
2024-03-16T06:00:15.232Z,62.85
2024-03-16T06:02:42.843Z,62.82
2024-03-16T06:05:10.991Z,62.84
2024-03-16T06:07:38.563Z,62.82
2024-03-16T06:10:06.866Z,62.69
2024-03-16T06:12:34.902Z,62.72
2024-03-16T06:15:02.512Z,62.79
2024-03-16T06:17:30.103Z,62.87
2024-03-16T06:19:57.705Z,62.86
2024-03-16T06:22:25.271Z,62.82
2024-03-16T06:24:53.059Z,62.92
2024-03-16T06:27:22.689Z,63.14
2024-03-16T06:29:53.746Z,62.94
2024-03-16T06:32:22.301Z,62.99
2024-03-16T06:34:50.126Z,62.93
2024-03-16T06:37:18.449Z,63.09
2024-03-16T06:39:47.157Z,63.06
2024-03-16T06:42:14.762Z,63.01
2024-03-16T06:44:42.304Z,63.07
2024-03-16T06:47:09.905Z,62.91
2024-03-16T06:49:37.448Z,63.07
2024-03-16T06:52:05.368Z,63.06
2024-03-16T06:54:32.939Z,63.08
2024-03-16T06:57:00.491Z,63.13
2024-03-16T06:59:28.041Z,63.15
2024-03-16T07:01:55.990Z,63.03
2024-03-16T07:04:23.683Z,63.09
2024-03-16T07:06:51.278Z,62.92
2024-03-16T07:09:19.806Z,63.01
2024-03-16T07:11:48.722Z,62.97
2024-03-16T07:14:16.900Z,62.97
2024-03-16T07:16:44.467Z,62.88
2024-03-16T07:19:12.138Z,63.06
2024-03-16T07:21:39.792Z,63.07
2024-03-16T07:24:10.718Z,63.17
2024-03-16T07:26:38.300Z,63.09
2024-03-16T07:29:05.865Z,63.19
2024-03-16T07:31:33.424Z,63.25
2024-03-16T07:34:02.932Z,63.17
2024-03-16T07:36:30.902Z,63.23
2024-03-16T07:38:58.789Z,63.18
2024-03-16T07:41:26.424Z,63.15
2024-03-16T07:43:54.070Z,63.31
2024-03-16T07:46:21.663Z,63.26
2024-03-16T07:48:50.229Z,63.37
2024-03-16T07:51:18.153Z,63.43
2024-03-16T07:53:45.700Z,63.42
2024-03-16T07:56:13.263Z,63.37
2024-03-16T07:58:40.832Z,63.28
2024-03-16T08:01:10.980Z,63.31
2024-03-16T08:03:38.648Z,63.20
2024-03-16T08:06:08.514Z,63.44
2024-03-16T08:08:36.199Z,63.18
2024-03-16T08:11:05.157Z,63.31
2024-03-16T08:13:32.894Z,63.31
2024-03-16T08:16:01.112Z,63.30
2024-03-16T08:18:28.688Z,63.07
2024-03-16T08:20:58.469Z,63.15
2024-03-16T08:23:26.044Z,63.03
2024-03-16T08:25:53.621Z,63.04
2024-03-16T08:28:21.066Z,63.00
2024-03-16T08:30:48.693Z,63.20
2024-03-16T08:33:16.324Z,63.07
2024-03-16T08:35:45.775Z,63.03
2024-03-16T08:38:13.333Z,62.95
2024-03-16T08:40:40.985Z,62.91
2024-03-16T08:43:08.949Z,62.88
2024-03-16T08:45:37.120Z,62.97
2024-03-16T08:48:05.025Z,62.85
2024-03-16T08:50:32.650Z,62.77
2024-03-16T08:53:00.284Z,62.82
2024-03-16T08:55:28.546Z,62.79
2024-03-16T08:57:56.343Z,62.82
2024-03-16T09:00:24.058Z,62.77
2024-03-16T09:02:53.228Z,62.63
2024-03-16T09:05:22.155Z,62.62
2024-03-16T09:07:49.732Z,62.73
2024-03-16T09:10:18.526Z,62.70
2024-03-16T09:12:47.973Z,62.76
2024-03-16T09:15:16.366Z,62.48
2024-03-16T09:17:43.985Z,62.68
2024-03-16T09:20:12.197Z,62.61
2024-03-16T09:22:40.124Z,62.41
2024-03-16T09:25:09.103Z,62.49
2024-03-16T09:27:36.882Z,62.46
2024-03-16T09:30:06.925Z,62.38
2024-03-16T09:32:33.973Z,62.39
2024-03-16T09:35:01.608Z,62.38
2024-03-16T09:37:29.154Z,62.32
2024-03-16T09:39:56.736Z,62.37
2024-03-16T09:42:25.013Z,62.28
